createdAt,value
2018-01-22T01:47:11.659Z,94419.52
2018-01-22T01:49:49.399Z,94422.59
2018-01-22T01:52:24.008Z,94419.34
2018-01-22T07:28:47.526Z,94665.45
2018-01-22T07:31:15.893Z,94663.48
2018-01-22T07:33:43.584Z,94661.50
2018-01-22T07:36:11.937Z,94672.60
2018-01-22T07:38:39.761Z,94678.51
2018-01-22T07:41:07.374Z,94666.78
2018-01-22T07:43:35.165Z,94681.22
2018-01-22T07:46:05.002Z,94685.11
2018-01-22T07:48:34.814Z,94683.59
2018-01-22T07:51:02.520Z,94686.20
2018-01-22T07:53:30.209Z,94685.62
2018-01-22T07:55:57.980Z,94686.52
2018-01-22T07:58:25.757Z,94696.22
2018-01-22T08:00:53.441Z,94693.83
2018-01-22T08:03:21.836Z,94690.06
2018-01-22T08:05:49.527Z,94690.52
2018-01-22T08:08:17.349Z,94691.57
2018-01-22T08:10:45.128Z,94710.97
2018-01-22T08:13:12.848Z,94716.69
2018-01-22T08:15:40.653Z,94717.94
2018-01-22T08:20:50.351Z,94728.68
2018-01-22T08:23:21.146Z,94727.47
2018-01-22T08:25:50.744Z,94731.83
2018-01-22T08:28:18.408Z,94731.32
2018-01-22T08:30:46.350Z,94733.84
2018-01-22T08:33:14.145Z,94752.61
2018-01-22T08:35:41.945Z,94747.20
2018-01-22T08:38:10.579Z,94748.38
2018-01-22T08:40:38.248Z,94741.80
2018-01-22T08:43:06.738Z,94747.82
2018-01-22T08:45:35.100Z,94749.55
2018-01-22T08:48:02.965Z,94751.14
2018-01-22T08:50:33.910Z,94692.45
2018-01-22T08:53:02.141Z,94768.19
2018-01-22T08:55:30.683Z,94780.83
2018-01-22T08:57:58.294Z,94772.00
2018-01-22T09:00:27.131Z,94773.47
2018-01-22T09:02:56.557Z,94778.70
2018-01-22T09:05:24.595Z,94761.09
2018-01-22T09:07:53.536Z,94779.33
2018-01-22T09:10:22.028Z,94784.88
2018-01-22T09:12:49.692Z,94775.47
2018-01-22T09:15:17.801Z,94789.44
2018-01-22T09:17:46.198Z,94776.17
2018-01-22T09:20:14.221Z,94781.81
2018-01-22T09:22:42.409Z,94777.67
2018-01-22T09:25:10.093Z,94788.02
2018-01-22T09:27:37.712Z,94792.73
2018-01-22T09:30:09.068Z,94766.16
2018-01-22T09:32:37.005Z,94787.44
2018-01-22T09:35:06.972Z,94779.94
2018-01-22T09:37:35.295Z,94784.02
2018-01-22T09:40:03.684Z,94789.30
2018-01-22T09:42:32.315Z,94777.91
2018-01-22T09:45:00.136Z,94789.09
2018-01-22T09:47:29.002Z,94786.64
2018-01-22T09:49:56.620Z,94789.64
2018-01-22T09:52:25.172Z,94799.65
2018-01-22T09:54:53.322Z,94798.17
2018-01-22T09:57:20.979Z,94781.45
2018-01-22T09:59:49.906Z,94786.94
2018-01-22T10:02:17.703Z,94791.33
2018-01-22T10:04:45.457Z,94793.41
2018-01-22T10:07:13.474Z,94769.03
2018-01-22T10:09:41.292Z,94799.54
2018-01-22T10:12:08.975Z,94793.25
2018-01-22T10:14:37.726Z,94791.86
2018-01-22T10:17:06.280Z,94789.34
2018-01-22T10:19:35.020Z,94799.03
2018-01-22T10:22:03.197Z,94801.56
2018-01-22T10:24:31.970Z,94798.19
2018-01-22T10:27:00.209Z,94791.59
2018-01-22T10:29:27.992Z,94791.80
2018-01-22T10:31:56.504Z,94807.38
2018-01-22T10:34:25.289Z,94801.84
2018-01-22T10:36:54.149Z,94796.98
2018-01-22T10:39:22.725Z,94797.29
2018-01-22T10:41:50.464Z,94791.02
2018-01-22T10:44:18.166Z,94801.08
2018-01-22T10:46:46.306Z,94803.50
2018-01-22T10:49:14.337Z,94803.91
2018-01-22T10:51:44.258Z,94808.61
2018-01-22T10:54:13.503Z,94805.85
2018-01-22T10:56:42.836Z,94801.53
2018-01-22T10:59:10.494Z,94794.80
2018-01-22T11:01:39.154Z,94800.05
2018-01-22T11:04:06.922Z,94798.78
2018-01-22T11:06:35.279Z,94812.83
2018-01-22T11:09:04.666Z,94805.27
2018-01-22T11:11:32.556Z,94805.61
2018-01-22T11:14:01.204Z,94807.25
2018-01-22T11:16:29.970Z,94805.92
2018-01-22T11:18:57.763Z,94813.59
2018-01-22T11:21:25.595Z,94812.03
2018-01-22T11:23:53.579Z,94818.66
2018-01-22T11:26:21.292Z,94806.55
2018-01-22T11:28:49.002Z,94802.30
2018-01-22T11:31:16.821Z,94797.52
2018-01-22T11:33:44.450Z,94806.44
2018-01-22T11:36:12.358Z,94810.34
2018-01-22T11:38:40.230Z,94803.80
2018-01-22T11:41:07.939Z,94793.82
2018-01-22T11:43:36.165Z,94770.27
2018-01-22T11:46:04.084Z,94809.18
2018-01-22T11:48:32.376Z,94805.53
2018-01-22T11:50:59.966Z,94814.92
2018-01-22T11:53:27.697Z,94815.31
2018-01-22T11:55:55.956Z,94814.17
2018-01-22T11:58:25.141Z,94820.41
2018-01-22T12:00:54.426Z,94823.31
2018-01-22T12:03:22.166Z,94818.15
2018-01-22T12:05:50.262Z,94802.98
2018-01-22T12:08:18.614Z,94796.88
2018-01-22T12:14:50.017Z,94826.44
2018-01-22T12:17:17.722Z,94812.23
2018-01-22T12:19:45.379Z,94822.97
2018-01-22T12:22:13.154Z,94822.87
2018-01-22T12:24:40.776Z,94826.39
2018-01-22T12:27:08.628Z,94836.19
2018-01-22T12:29:36.430Z,94837.64
2018-01-22T12:32:04.253Z,94846.13
2018-01-22T12:34:31.930Z,94827.97
2018-01-22T12:36:59.542Z,94837.66
2018-01-22T12:39:27.402Z,94834.09
2018-01-22T12:41:57.763Z,94838.43
2018-01-22T12:44:25.590Z,94846.63
2018-01-22T12:46:53.306Z,94855.30
2018-01-22T12:49:21.307Z,94842.88
2018-01-22T12:51:51.791Z,94845.25
2018-01-22T12:54:20.142Z,94843.13
2018-01-22T12:56:47.754Z,94849.58
2018-01-22T12:59:21.563Z,94853.17
2018-01-22T13:01:49.350Z,94851.21
2018-01-22T13:04:16.980Z,94850.73
2018-01-22T13:06:44.852Z,94857.39
2018-01-22T13:09:12.578Z,94855.61
2018-01-22T13:11:41.381Z,94862.85
2018-01-22T13:14:09.018Z,94862.55
2018-01-22T13:16:36.848Z,94864.84
2018-01-22T13:19:04.565Z,94869.33
2018-01-22T13:21:32.451Z,94871.87
2018-01-22T13:24:00.271Z,94874.56
2018-01-22T13:26:27.936Z,94882.44
2018-01-22T13:28:55.549Z,94892.82
2018-01-22T13:31:23.402Z,94888.73
2018-01-22T13:33:51.121Z,94886.73
2018-01-22T13:36:19.000Z,94882.70
2018-01-22T13:38:46.936Z,94900.64
2018-01-22T13:41:15.429Z,94910.03
2018-01-22T13:43:43.021Z,94909.90
2018-01-22T13:46:10.800Z,94916.09
2018-01-22T13:48:38.494Z,94925.20
2018-01-22T13:51:06.093Z,94928.30
2018-01-22T13:53:33.796Z,94930.24
2018-01-22T13:56:01.444Z,94934.42
2018-01-22T13:58:29.082Z,94928.84
2018-01-22T14:00:56.989Z,94931.05
2018-01-22T14:03:24.720Z,94930.73
2018-01-22T14:05:52.565Z,94941.22
2018-01-22T14:08:20.320Z,94943.22
2018-01-22T14:10:48.000Z,94945.36
2018-01-22T14:13:15.647Z,94962.67
2018-01-22T14:15:43.452Z,94960.28
2018-01-22T14:18:11.989Z,94960.94
2018-01-22T14:20:40.490Z,94957.16
2018-01-22T14:23:08.857Z,94962.05
2018-01-22T14:25:36.719Z,94965.39
2018-01-22T14:28:04.666Z,94973.50
2018-01-22T14:30:33.711Z,94970.47
2018-01-22T14:33:01.878Z,94976.66
2018-01-22T14:35:30.174Z,94976.77
2018-01-22T14:37:59.750Z,94991.19
2018-01-22T14:40:38.534Z,94990.96
2018-01-22T14:46:37.659Z,94993.64
2018-01-22T14:49:08.858Z,94994.33
2018-01-22T14:51:37.714Z,94991.45
2018-01-22T14:54:06.631Z,94992.89
2018-01-22T14:56:34.363Z,95003.37
2018-01-22T14:59:02.776Z,94999.14
2018-01-22T15:01:32.041Z,94999.94
2018-01-22T15:03:59.852Z,95004.73
2018-01-22T15:10:05.270Z,95018.87
2018-01-22T15:12:32.937Z,95016.55
2018-01-22T15:15:00.681Z,95023.63
2018-01-22T15:17:28.449Z,95042.08
2018-01-22T15:19:56.439Z,95028.37
2018-01-22T15:22:25.401Z,95031.87
2018-01-22T15:32:04.637Z,95058.09
2018-01-22T15:34:34.147Z,95057.27
2018-01-22T15:37:02.586Z,95061.28
2018-01-22T15:46:52.593Z,95072.22
2018-01-22T15:49:20.440Z,95061.39
2018-01-22T15:51:49.657Z,95071.41
2018-01-22T15:54:18.666Z,95076.70
2018-01-22T15:56:47.788Z,95082.31
2018-01-22T15:59:17.382Z,95078.50
2018-01-22T16:01:45.565Z,95089.69
2018-01-22T16:04:18.131Z,95087.98
2018-01-22T16:06:56.882Z,95087.96
2018-01-22T16:09:24.504Z,95090.99
2018-01-22T16:11:52.268Z,95095.20
2018-01-22T16:14:21.684Z,95102.03
2018-01-22T16:16:49.542Z,95107.58
2018-01-22T16:19:17.171Z,95102.84
2018-01-22T16:21:44.832Z,95109.44
2018-01-22T16:24:12.613Z,95109.39
2018-01-22T16:26:41.048Z,95107.87
2018-01-22T16:29:09.856Z,95120.44
2018-01-22T16:31:37.568Z,95110.02
2018-01-22T16:34:05.116Z,95116.09
2018-01-22T16:36:32.663Z,95124.80
2018-01-22T16:39:00.345Z,95129.69
2018-01-22T16:41:28.104Z,95130.53
2018-01-22T16:43:55.644Z,95132.05
2018-01-22T16:46:24.302Z,95143.63
2018-01-22T16:48:52.508Z,95149.62
2018-01-22T16:51:20.394Z,95161.11
2018-01-22T16:53:48.319Z,95159.61
2018-01-22T16:56:16.028Z,95164.34
2018-01-22T16:58:45.697Z,95165.08
2018-01-22T17:01:13.601Z,95172.32
2018-01-22T17:03:41.456Z,95171.06
2018-01-22T17:06:09.770Z,95173.89
2018-01-22T17:08:37.638Z,95177.24
2018-01-22T17:11:05.961Z,95172.44
2018-01-22T17:13:38.809Z,95185.87
2018-01-22T17:16:18.504Z,95179.95
2018-01-22T17:18:46.318Z,95186.09
2018-01-22T17:21:13.909Z,95191.43
2018-01-22T17:23:41.788Z,95193.95
2018-01-22T17:26:09.631Z,95188.02
2018-01-22T17:28:37.193Z,95204.26
2018-01-22T17:31:07.722Z,95200.80
2018-01-22T17:33:35.790Z,95200.05
2018-01-22T17:36:04.203Z,95207.51
2018-01-22T17:38:32.233Z,95219.56
2018-01-22T17:41:01.790Z,95214.66
2018-01-22T17:43:29.799Z,95216.84
2018-01-22T17:45:58.573Z,95215.83
2018-01-22T17:48:26.462Z,95222.54
2018-01-22T17:50:54.900Z,95215.28
2018-01-22T17:53:23.128Z,95222.83
2018-01-22T17:55:51.649Z,95224.33
2018-01-22T17:58:20.722Z,95222.63
2018-01-22T18:00:51.625Z,95225.31
2018-01-22T18:03:21.334Z,95230.61
2018-01-22T18:05:49.926Z,95230.11
2018-01-22T18:08:39.487Z,95238.62
2018-01-22T18:11:26.409Z,95234.78
2018-01-22T18:13:54.253Z,95237.28
2018-01-22T18:16:21.898Z,95246.64
2018-01-22T18:18:49.677Z,95235.22
2018-01-22T18:21:19.318Z,95231.50
2018-01-22T18:23:47.046Z,95232.56
2018-01-22T18:26:18.327Z,95228.91
2018-01-22T18:28:46.093Z,95228.88
2018-01-22T18:31:14.813Z,95236.45
2018-01-22T18:33:45.810Z,95234.59
2018-01-22T18:36:13.609Z,95230.70
2018-01-22T18:38:41.857Z,95231.30
2018-01-22T18:44:54.508Z,95235.66
2018-01-22T18:50:52.910Z,95236.16
2018-01-22T18:53:26.912Z,95224.05
2018-01-22T18:59:48.942Z,95223.55
2018-01-22T19:02:17.060Z,95221.84
2018-01-22T19:05:17.256Z,95222.52
2018-01-22T19:07:45.080Z,95233.67
2018-01-22T19:10:12.839Z,95242.39
2018-01-22T19:12:40.419Z,95244.83
2018-01-22T19:15:08.293Z,95239.71
2018-01-22T19:17:43.147Z,95242.48
2018-01-22T19:20:11.446Z,95239.31
2018-01-22T19:22:44.325Z,95244.84
2018-01-22T19:25:12.057Z,95226.03
2018-01-22T19:27:39.675Z,95247.80
2018-01-22T19:30:09.185Z,95257.47
2018-01-22T19:32:37.986Z,95249.11
2018-01-22T19:35:05.650Z,95253.63
2018-01-22T19:37:34.045Z,95259.91
2018-01-22T19:40:01.639Z,95261.92
2018-01-22T19:42:31.137Z,95264.77
2018-01-22T19:44:59.563Z,95265.84
2018-01-22T19:47:28.657Z,95269.64
2018-01-22T19:50:08.180Z,95267.48
2018-01-22T19:52:38.066Z,95268.17
2018-01-22T19:55:06.292Z,95276.91
2018-01-22T19:57:34.098Z,95281.03
2018-01-22T20:00:05.743Z,95289.00
2018-01-22T20:02:44.081Z,95281.92
2018-01-22T20:05:11.890Z,95291.09
2018-01-22T20:07:39.604Z,95287.77
2018-01-22T20:10:07.202Z,95286.11
2018-01-22T20:12:35.009Z,95293.95
2018-01-22T20:15:02.982Z,95297.47
2018-01-22T20:17:30.666Z,95293.08
2018-01-22T20:19:58.456Z,95298.50
2018-01-22T20:22:26.069Z,95299.75
2018-01-22T20:24:53.749Z,95287.11
2018-01-22T20:27:23.651Z,95299.53
2018-01-22T20:29:52.711Z,95296.84
2018-01-22T20:32:20.463Z,95292.39
2018-01-22T20:34:48.287Z,95298.06
2018-01-22T20:37:20.680Z,95308.77
2018-01-22T20:39:48.427Z,95295.88
2018-01-22T20:42:17.000Z,95296.59
2018-01-22T20:44:45.636Z,95297.97
2018-01-22T23:39:04.918Z,95289.61
2018-01-22T23:41:33.096Z,95295.29
2018-01-22T23:44:00.629Z,95305.44
2018-01-22T23:46:28.375Z,95307.20
2018-01-22T23:48:58.927Z,95305.86
2018-01-22T23:51:26.462Z,95312.64
2018-01-22T23:53:54.214Z,95305.43
2018-01-22T23:56:22.827Z,95320.50
2018-01-22T23:58:51.171Z,95315.25
